sensor_id;sensor_type;location;lat;lon;timestamp;temperature;humidity
57829;DHT22;43657;52.698;6.314;2023-05-10T00:02:23;12.40;99.90
57829;DHT22;43657;52.698;6.314;2023-05-10T00:04:50;12.40;99.90
57829;DHT22;43657;52.698;6.314;2023-05-10T00:07:15;12.40;99.90
57829;DHT22;43657;52.698;6.314;2023-05-10T00:09:43;12.50;99.90
57829;DHT22;43657;52.698;6.314;2023-05-10T00:12:08;12.40;99.90
57829;DHT22;43657;52.698;6.314;2023-05-10T00:14:34;12.40;99.90
57829;DHT22;43657;52.698;6.314;2023-05-10T00:17:00;12.40;99.90
57829;DHT22;43657;52.698;6.314;2023-05-10T00:19:25;12.40;99.90
57829;DHT22;43657;52.698;6.314;2023-05-10T00:21:51;12.40;99.90
57829;DHT22;43657;52.698;6.314;2023-05-10T00:24:16;12.40;99.90
57829;DHT22;43657;52.698;6.314;2023-05-10T00:26:42;12.40;99.90
57829;DHT22;43657;52.698;6.314;2023-05-10T00:29:07;12.40;99.90
57829;DHT22;43657;52.698;6.314;2023-05-10T00:31:33;12.40;99.90
57829;DHT22;43657;52.698;6.314;2023-05-10T00:33:59;12.40;99.90
57829;DHT22;43657;52.698;6.314;2023-05-10T00:36:24;12.40;99.90
57829;DHT22;43657;52.698;6.314;2023-05-10T00:38:50;12.40;99.90
57829;DHT22;43657;52.698;6.314;2023-05-10T00:41:15;12.40;99.90
57829;DHT22;43657;52.698;6.314;2023-05-10T00:43:41;12.40;99.90
57829;DHT22;43657;52.698;6.314;2023-05-10T00:46:07;12.40;99.90
57829;DHT22;43657;52.698;6.314;2023-05-10T00:48:33;12.40;99.90
57829;DHT22;43657;52.698;6.314;2023-05-10T00:51:00;12.40;99.90
57829;DHT22;43657;52.698;6.314;2023-05-10T00:53:26;12.40;99.90
57829;DHT22;43657;52.698;6.314;2023-05-10T00:55:52;12.40;99.90
57829;DHT22;43657;52.698;6.314;2023-05-10T00:58:18;12.40;99.90
57829;DHT22;43657;52.698;6.314;2023-05-10T01:00:46;12.40;99.90
57829;DHT22;43657;52.698;6.314;2023-05-10T01:03:13;12.40;99.90
57829;DHT22;43657;52.698;6.314;2023-05-10T01:05:39;12.40;99.90
57829;DHT22;43657;52.698;6.314;2023-05-10T01:08:06;12.40;99.90
57829;DHT22;43657;52.698;6.314;2023-05-10T01:10:32;12.40;99.90
57829;DHT22;43657;52.698;6.314;2023-05-10T01:12:59;12.40;99.90
57829;DHT22;43657;52.698;6.314;2023-05-10T01:15:24;12.40;99.90
57829;DHT22;43657;52.698;6.314;2023-05-10T01:17:51;12.40;99.90
57829;DHT22;43657;52.698;6.314;2023-05-10T01:20:17;12.40;99.90
57829;DHT22;43657;52.698;6.314;2023-05-10T01:23:10;12.30;99.90
57829;DHT22;43657;52.698;6.314;2023-05-10T01:26:02;12.40;99.90
57829;DHT22;43657;52.698;6.314;2023-05-10T01:29:06;12.40;99.90
57829;DHT22;43657;52.698;6.314;2023-05-10T01:34:27;12.30;99.90
57829;DHT22;43657;52.698;6.314;2023-05-10T01:37:04;12.30;99.90
57829;DHT22;43657;52.698;6.314;2023-05-10T01:40:03;12.30;99.90
57829;DHT22;43657;52.698;6.314;2023-05-10T01:42:46;12.20;99.90
57829;DHT22;43657;52.698;6.314;2023-05-10T01:45:39;12.20;99.90
57829;DHT22;43657;52.698;6.314;2023-05-10T01:48:09;12.20;99.90
57829;DHT22;43657;52.698;6.314;2023-05-10T01:50:36;12.20;99.90
57829;DHT22;43657;52.698;6.314;2023-05-10T01:53:08;12.20;99.90
57829;DHT22;43657;52.698;6.314;2023-05-10T01:55:43;12.20;99.90
57829;DHT22;43657;52.698;6.314;2023-05-10T01:58:15;12.20;99.90
57829;DHT22;43657;52.698;6.314;2023-05-10T02:00:44;12.10;99.90
57829;DHT22;43657;52.698;6.314;2023-05-10T02:03:12;12.10;99.90
57829;DHT22;43657;52.698;6.314;2023-05-10T02:05:39;12.10;99.90
57829;DHT22;43657;52.698;6.314;2023-05-10T02:08:07;12.10;99.90
57829;DHT22;43657;52.698;6.314;2023-05-10T02:10:34;12.10;99.90
57829;DHT22;43657;52.698;6.314;2023-05-10T02:13:02;12.10;99.90
57829;DHT22;43657;52.698;6.314;2023-05-10T02:15:28;12.00;99.90
57829;DHT22;43657;52.698;6.314;2023-05-10T02:17:55;12.00;99.90
57829;DHT22;43657;52.698;6.314;2023-05-10T02:20:23;12.00;99.90
57829;DHT22;43657;52.698;6.314;2023-05-10T02:22:51;12.00;99.90
57829;DHT22;43657;52.698;6.314;2023-05-10T02:25:19;12.00;99.90
57829;DHT22;43657;52.698;6.314;2023-05-10T02:27:46;12.00;99.90
57829;DHT22;43657;52.698;6.314;2023-05-10T02:30:13;12.10;99.90
57829;DHT22;43657;52.698;6.314;2023-05-10T02:32:39;12.10;99.90
57829;DHT22;43657;52.698;6.314;2023-05-10T02:35:05;12.10;99.90
57829;DHT22;43657;52.698;6.314;2023-05-10T02:37:33;12.10;99.90
57829;DHT22;43657;52.698;6.314;2023-05-10T02:40:00;12.10;99.90
57829;DHT22;43657;52.698;6.314;2023-05-10T02:42:29;12.10;99.90
57829;DHT22;43657;52.698;6.314;2023-05-10T02:45:01;12.10;99.90
57829;DHT22;43657;52.698;6.314;2023-05-10T02:47:28;12.10;99.90
57829;DHT22;43657;52.698;6.314;2023-05-10T02:49:54;12.10;99.90
57829;DHT22;43657;52.698;6.314;2023-05-10T02:52:25;12.10;99.90
57829;DHT22;43657;52.698;6.314;2023-05-10T02:54:55;12.10;99.90
57829;DHT22;43657;52.698;6.314;2023-05-10T02:57:26;12.00;99.90
57829;DHT22;43657;52.698;6.314;2023-05-10T02:59:52;12.00;99.90
57829;DHT22;43657;52.698;6.314;2023-05-10T03:02:18;12.10;99.90
57829;DHT22;43657;52.698;6.314;2023-05-10T03:04:43;12.10;99.90
57829;DHT22;43657;52.698;6.314;2023-05-10T03:07:09;12.10;99.90
57829;DHT22;43657;52.698;6.314;2023-05-10T03:09:35;12.10;99.90
57829;DHT22;43657;52.698;6.314;2023-05-10T03:12:10;12.10;99.90
57829;DHT22;43657;52.698;6.314;2023-05-10T03:14:53;12.10;99.90
57829;DHT22;43657;52.698;6.314;2023-05-10T03:17:41;12.10;99.90
57829;DHT22;43657;52.698;6.314;2023-05-10T03:20:15;12.10;99.90
57829;DHT22;43657;52.698;6.314;2023-05-10T03:22:47;12.10;99.90
57829;DHT22;43657;52.698;6.314;2023-05-10T03:25:15;12.10;99.90
57829;DHT22;43657;52.698;6.314;2023-05-10T03:27:43;12.10;99.90
57829;DHT22;43657;52.698;6.314;2023-05-10T03:30:11;12.10;99.90
57829;DHT22;43657;52.698;6.314;2023-05-10T03:32:37;12.10;99.90
57829;DHT22;43657;52.698;6.314;2023-05-10T03:35:08;12.10;99.90
57829;DHT22;43657;52.698;6.314;2023-05-10T03:37:34;12.10;99.90
57829;DHT22;43657;52.698;6.314;2023-05-10T03:40:00;12.10;99.90
57829;DHT22;43657;52.698;6.314;2023-05-10T03:42:25;12.10;99.90
57829;DHT22;43657;52.698;6.314;2023-05-10T03:44:51;12.10;99.90
57829;DHT22;43657;52.698;6.314;2023-05-10T03:47:16;12.10;99.90
57829;DHT22;43657;52.698;6.314;2023-05-10T03:49:42;12.10;99.90
57829;DHT22;43657;52.698;6.314;2023-05-10T03:52:07;12.10;99.90
57829;DHT22;43657;52.698;6.314;2023-05-10T03:54:33;12.10;99.90
57829;DHT22;43657;52.698;6.314;2023-05-10T03:56:58;12.10;99.90
57829;DHT22;43657;52.698;6.314;2023-05-10T03:59:24;12.10;99.90
57829;DHT22;43657;52.698;6.314;2023-05-10T04:01:49;12.10;99.90
57829;DHT22;43657;52.698;6.314;2023-05-10T04:04:15;12.10;99.90
57829;DHT22;43657;52.698;6.314;2023-05-10T04:06:40;12.00;99.90
57829;DHT22;43657;52.698;6.314;2023-05-10T04:09:06;12.00;99.90
57829;DHT22;43657;52.698;6.314;2023-05-10T04:11:31;12.00;99.90
57829;DHT22;43657;52.698;6.314;2023-05-10T04:13:57;12.00;99.90
57829;DHT22;43657;52.698;6.314;2023-05-10T04:16:23;12.00;99.90
57829;DHT22;43657;52.698;6.314;2023-05-10T04:18:48;12.00;99.90
57829;DHT22;43657;52.698;6.314;2023-05-10T04:21:14;12.00;99.90
57829;DHT22;43657;52.698;6.314;2023-05-10T04:23:40;12.00;99.90
57829;DHT22;43657;52.698;6.314;2023-05-10T04:26:06;12.00;99.90
57829;DHT22;43657;52.698;6.314;2023-05-10T04:28:31;12.00;99.90
57829;DHT22;43657;52.698;6.314;2023-05-10T04:31:01;12.00;99.90
57829;DHT22;43657;52.698;6.314;2023-05-10T04:33:27;12.10;99.90
57829;DHT22;43657;52.698;6.314;2023-05-10T04:35:53;12.10;99.90
57829;DHT22;43657;52.698;6.314;2023-05-10T04:38:18;12.10;99.90
57829;DHT22;43657;52.698;6.314;2023-05-10T04:40:44;12.00;99.90
57829;DHT22;43657;52.698;6.314;2023-05-10T04:43:09;12.10;99.90
57829;DHT22;43657;52.698;6.314;2023-05-10T04:45:35;12.10;99.90
57829;DHT22;43657;52.698;6.314;2023-05-10T04:48:00;12.10;99.90
57829;DHT22;43657;52.698;6.314;2023-05-10T04:50:26;12.10;99.90
57829;DHT22;43657;52.698;6.314;2023-05-10T04:52:51;12.00;99.90
57829;DHT22;43657;52.698;6.314;2023-05-10T04:55:17;12.10;99.90
57829;DHT22;43657;52.698;6.314;2023-05-10T04:57:42;12.00;99.90
57829;DHT22;43657;52.698;6.314;2023-05-10T05:00:08;12.10;99.90
57829;DHT22;43657;52.698;6.314;2023-05-10T05:02:34;12.10;99.90
57829;DHT22;43657;52.698;6.314;2023-05-10T05:05:00;12.10;99.90
57829;DHT22;43657;52.698;6.314;2023-05-10T05:07:26;12.10;99.90
57829;DHT22;43657;52.698;6.314;2023-05-10T05:09:51;12.10;99.90
57829;DHT22;43657;52.698;6.314;2023-05-10T05:12:17;12.10;99.90
57829;DHT22;43657;52.698;6.314;2023-05-10T05:14:42;12.10;99.90
57829;DHT22;43657;52.698;6.314;2023-05-10T05:17:08;12.10;99.90
57829;DHT22;43657;52.698;6.314;2023-05-10T05:19:33;12.10;99.90
57829;DHT22;43657;52.698;6.314;2023-05-10T05:21:59;12.10;99.90
57829;DHT22;43657;52.698;6.314;2023-05-10T05:24:25;12.20;99.90
57829;DHT22;43657;52.698;6.314;2023-05-10T05:26:51;12.10;99.90
57829;DHT22;43657;52.698;6.314;2023-05-10T05:29:16;12.20;99.90
57829;DHT22;43657;52.698;6.314;2023-05-10T05:31:42;12.20;99.90
57829;DHT22;43657;52.698;6.314;2023-05-10T05:34:07;12.20;99.90
57829;DHT22;43657;52.698;6.314;2023-05-10T05:36:36;12.20;99.90
57829;DHT22;43657;52.698;6.314;2023-05-10T05:39:03;12.20;99.90
57829;DHT22;43657;52.698;6.314;2023-05-10T05:41:29;12.30;99.90
57829;DHT22;43657;52.698;6.314;2023-05-10T05:43:54;12.20;99.90
57829;DHT22;43657;52.698;6.314;2023-05-10T05:46:20;12.30;99.90
57829;DHT22;43657;52.698;6.314;2023-05-10T05:48:45;12.30;99.90
57829;DHT22;43657;52.698;6.314;2023-05-10T05:51:11;12.40;99.90
57829;DHT22;43657;52.698;6.314;2023-05-10T05:53:36;12.50;99.90
57829;DHT22;43657;52.698;6.314;2023-05-10T05:56:02;12.60;99.90
57829;DHT22;43657;52.698;6.314;2023-05-10T05:58:28;12.70;99.90
57829;DHT22;43657;52.698;6.314;2023-05-10T06:00:54;12.70;99.90
57829;DHT22;43657;52.698;6.314;2023-05-10T06:03:20;12.70;99.90
57829;DHT22;43657;52.698;6.314;2023-05-10T06:05:46;12.70;99.90
57829;DHT22;43657;52.698;6.314;2023-05-10T06:08:11;12.80;99.90
57829;DHT22;43657;52.698;6.314;2023-05-10T06:10:37;12.80;99.90
57829;DHT22;43657;52.698;6.314;2023-05-10T06:13:03;12.80;99.90
57829;DHT22;43657;52.698;6.314;2023-05-10T06:15:28;12.90;99.90
57829;DHT22;43657;52.698;6.314;2023-05-10T06:17:54;12.90;99.90
57829;DHT22;43657;52.698;6.314;2023-05-10T06:20:19;12.90;99.90
57829;DHT22;43657;52.698;6.314;2023-05-10T06:22:45;12.90;99.90
57829;DHT22;43657;52.698;6.314;2023-05-10T06:25:10;13.00;99.90
57829;DHT22;43657;52.698;6.314;2023-05-10T06:27:36;12.90;99.90
57829;DHT22;43657;52.698;6.314;2023-05-10T06:30:02;12.90;99.90
57829;DHT22;43657;52.698;6.314;2023-05-10T06:32:28;12.90;99.90
57829;DHT22;43657;52.698;6.314;2023-05-10T06:34:53;13.00;99.90
57829;DHT22;43657;52.698;6.314;2023-05-10T06:37:19;13.00;99.90
57829;DHT22;43657;52.698;6.314;2023-05-10T06:39:44;13.10;99.90
57829;DHT22;43657;52.698;6.314;2023-05-10T06:42:10;13.20;99.90
57829;DHT22;43657;52.698;6.314;2023-05-10T06:44:35;13.30;99.90
57829;DHT22;43657;52.698;6.314;2023-05-10T06:47:01;13.40;99.90
57829;DHT22;43657;52.698;6.314;2023-05-10T06:49:26;13.50;99.90
57829;DHT22;43657;52.698;6.314;2023-05-10T06:51:52;13.50;99.90
57829;DHT22;43657;52.698;6.314;2023-05-10T06:54:18;13.50;99.90
57829;DHT22;43657;52.698;6.314;2023-05-10T06:56:43;13.50;99.90
57829;DHT22;43657;52.698;6.314;2023-05-10T06:59:09;13.60;99.90
57829;DHT22;43657;52.698;6.314;2023-05-10T07:01:34;13.70;99.90
57829;DHT22;43657;52.698;6.314;2023-05-10T07:04:00;13.70;99.90
57829;DHT22;43657;52.698;6.314;2023-05-10T07:06:26;13.80;99.90
57829;DHT22;43657;52.698;6.314;2023-05-10T07:08:51;13.70;99.90
57829;DHT22;43657;52.698;6.314;2023-05-10T07:11:17;13.80;99.90
57829;DHT22;43657;52.698;6.314;2023-05-10T07:13:42;13.80;99.90
57829;DHT22;43657;52.698;6.314;2023-05-10T07:16:09;13.80;99.90
57829;DHT22;43657;52.698;6.314;2023-05-10T07:18:35;13.80;99.90
57829;DHT22;43657;52.698;6.314;2023-05-10T07:21:01;13.80;99.90
57829;DHT22;43657;52.698;6.314;2023-05-10T07:23:27;13.80;99.90
57829;DHT22;43657;52.698;6.314;2023-05-10T07:25:52;13.80;99.90
57829;DHT22;43657;52.698;6.314;2023-05-10T07:28:19;13.80;99.90
57829;DHT22;43657;52.698;6.314;2023-05-10T07:30:45;13.90;99.90
57829;DHT22;43657;52.698;6.314;2023-05-10T07:33:13;13.80;99.90
57829;DHT22;43657;52.698;6.314;2023-05-10T07:35:39;13.80;99.90
57829;DHT22;43657;52.698;6.314;2023-05-10T07:38:04;13.80;99.90
57829;DHT22;43657;52.698;6.314;2023-05-10T07:40:30;13.90;99.90
57829;DHT22;43657;52.698;6.314;2023-05-10T07:42:56;14.00;99.90
57829;DHT22;43657;52.698;6.314;2023-05-10T07:45:22;14.20;99.90
57829;DHT22;43657;52.698;6.314;2023-05-10T07:47:48;14.40;99.90
57829;DHT22;43657;52.698;6.314;2023-05-10T07:50:14;14.50;99.90
57829;DHT22;43657;52.698;6.314;2023-05-10T07:52:39;14.50;99.90
57829;DHT22;43657;52.698;6.314;2023-05-10T07:55:05;14.60;99.90
57829;DHT22;43657;52.698;6.314;2023-05-10T07:57:33;14.70;99.90
57829;DHT22;43657;52.698;6.314;2023-05-10T07:59:59;14.70;99.90
57829;DHT22;43657;52.698;6.314;2023-05-10T08:02:24;14.80;99.90
57829;DHT22;43657;52.698;6.314;2023-05-10T08:04:50;14.80;99.90
57829;DHT22;43657;52.698;6.314;2023-05-10T08:07:16;14.90;99.90
57829;DHT22;43657;52.698;6.314;2023-05-10T08:09:42;14.90;99.90
57829;DHT22;43657;52.698;6.314;2023-05-10T08:12:08;15.10;99.90
57829;DHT22;43657;52.698;6.314;2023-05-10T08:14:33;15.20;99.90
57829;DHT22;43657;52.698;6.314;2023-05-10T08:16:59;15.20;99.90
57829;DHT22;43657;52.698;6.314;2023-05-10T08:19:24;15.20;99.90
57829;DHT22;43657;52.698;6.314;2023-05-10T08:21:50;15.30;99.90
57829;DHT22;43657;52.698;6.314;2023-05-10T08:24:16;15.30;99.90
57829;DHT22;43657;52.698;6.314;2023-05-10T08:26:41;15.40;99.90
57829;DHT22;43657;52.698;6.314;2023-05-10T08:29:07;15.60;99.90
57829;DHT22;43657;52.698;6.314;2023-05-10T08:31:32;15.60;99.90
57829;DHT22;43657;52.698;6.314;2023-05-10T08:33:58;15.60;99.90
57829;DHT22;43657;52.698;6.314;2023-05-10T08:36:24;15.70;99.90
57829;DHT22;43657;52.698;6.314;2023-05-10T08:38:53;15.60;99.90
57829;DHT22;43657;52.698;6.314;2023-05-10T08:41:23;15.70;99.90
57829;DHT22;43657;52.698;6.314;2023-05-10T08:43:50;15.80;99.90
57829;DHT22;43657;52.698;6.314;2023-05-10T08:46:17;15.90;99.90
57829;DHT22;43657;52.698;6.314;2023-05-10T08:48:45;16.10;99.90
57829;DHT22;43657;52.698;6.314;2023-05-10T08:51:14;16.10;99.90
57829;DHT22;43657;52.698;6.314;2023-05-10T08:53:40;16.20;99.90
57829;DHT22;43657;52.698;6.314;2023-05-10T08:56:06;16.20;99.90
57829;DHT22;43657;52.698;6.314;2023-05-10T08:58:32;16.10;99.90
57829;DHT22;43657;52.698;6.314;2023-05-10T09:00:58;16.10;99.90
57829;DHT22;43657;52.698;6.314;2023-05-10T09:03:24;16.00;99.90
57829;DHT22;43657;52.698;6.314;2023-05-10T09:05:50;15.90;99.90
57829;DHT22;43657;52.698;6.314;2023-05-10T09:08:16;15.80;99.90
57829;DHT22;43657;52.698;6.314;2023-05-10T09:10:43;15.70;99.90
57829;DHT22;43657;52.698;6.314;2023-05-10T09:13:10;15.70;99.90
57829;DHT22;43657;52.698;6.314;2023-05-10T09:15:37;15.60;99.90
57829;DHT22;43657;52.698;6.314;2023-05-10T09:18:03;15.60;99.90
57829;DHT22;43657;52.698;6.314;2023-05-10T09:20:29;15.50;99.90
57829;DHT22;43657;52.698;6.314;2023-05-10T09:22:54;15.50;99.90
57829;DHT22;43657;52.698;6.314;2023-05-10T09:25:20;15.50;99.90
57829;DHT22;43657;52.698;6.314;2023-05-10T09:27:47;15.60;99.90
57829;DHT22;43657;52.698;6.314;2023-05-10T09:30:17;15.60;99.90
57829;DHT22;43657;52.698;6.314;2023-05-10T09:32:48;15.60;99.90
57829;DHT22;43657;52.698;6.314;2023-05-10T09:35:16;15.50;99.90
57829;DHT22;43657;52.698;6.314;2023-05-10T09:37:46;15.50;99.90
57829;DHT22;43657;52.698;6.314;2023-05-10T09:40:21;15.60;99.90
57829;DHT22;43657;52.698;6.314;2023-05-10T09:43:01;15.60;99.90
57829;DHT22;43657;52.698;6.314;2023-05-10T09:45:31;15.70;99.90
57829;DHT22;43657;52.698;6.314;2023-05-10T09:47:57;15.80;99.90
57829;DHT22;43657;52.698;6.314;2023-05-10T09:50:24;15.80;99.90
57829;DHT22;43657;52.698;6.314;2023-05-10T09:53:00;15.90;99.90
57829;DHT22;43657;52.698;6.314;2023-05-10T09:55:40;15.80;99.90
57829;DHT22;43657;52.698;6.314;2023-05-10T09:58:07;15.80;99.90
57829;DHT22;43657;52.698;6.314;2023-05-10T10:00:40;15.80;99.90
57829;DHT22;43657;52.698;6.314;2023-05-10T10:03:07;15.90;99.90
57829;DHT22;43657;52.698;6.314;2023-05-10T10:05:40;16.00;99.90
57829;DHT22;43657;52.698;6.314;2023-05-10T10:08:06;16.20;99.90
57829;DHT22;43657;52.698;6.314;2023-05-10T10:10:32;16.30;99.90
57829;DHT22;43657;52.698;6.314;2023-05-10T10:12:58;16.50;99.90
57829;DHT22;43657;52.698;6.314;2023-05-10T10:15:25;16.60;99.90
57829;DHT22;43657;52.698;6.314;2023-05-10T10:17:52;16.80;99.90
57829;DHT22;43657;52.698;6.314;2023-05-10T10:20:21;17.00;99.90
57829;DHT22;43657;52.698;6.314;2023-05-10T10:22:52;17.10;99.90
57829;DHT22;43657;52.698;6.314;2023-05-10T10:25:21;17.20;99.90
57829;DHT22;43657;52.698;6.314;2023-05-10T10:30:45;17.30;99.90
57829;DHT22;43657;52.698;6.314;2023-05-10T10:33:16;17.40;99.90
57829;DHT22;43657;52.698;6.314;2023-05-10T10:35:45;17.40;99.90
57829;DHT22;43657;52.698;6.314;2023-05-10T10:38:22;17.40;99.90
57829;DHT22;43657;52.698;6.314;2023-05-10T10:41:07;17.30;99.90
57829;DHT22;43657;52.698;6.314;2023-05-10T10:43:36;17.30;99.90
57829;DHT22;43657;52.698;6.314;2023-05-10T10:46:18;17.20;99.90
57829;DHT22;43657;52.698;6.314;2023-05-10T10:49:09;17.10;99.90
57829;DHT22;43657;52.698;6.314;2023-05-10T10:51:40;16.90;99.90
57829;DHT22;43657;52.698;6.314;2023-05-10T10:54:11;16.70;99.90
57829;DHT22;43657;52.698;6.314;2023-05-10T10:56:39;16.60;99.90
57829;DHT22;43657;52.698;6.314;2023-05-10T10:59:07;16.40;99.90
57829;DHT22;43657;52.698;6.314;2023-05-10T11:01:34;16.30;99.90
57829;DHT22;43657;52.698;6.314;2023-05-10T11:06:35;16.10;99.90
57829;DHT22;43657;52.698;6.314;2023-05-10T11:09:10;16.10;99.90
57829;DHT22;43657;52.698;6.314;2023-05-10T11:11:48;16.10;99.90
57829;DHT22;43657;52.698;6.314;2023-05-10T11:14:22;16.20;99.90
57829;DHT22;43657;52.698;6.314;2023-05-10T11:16:57;16.30;99.90
57829;DHT22;43657;52.698;6.314;2023-05-10T11:19:31;16.30;99.90
57829;DHT22;43657;52.698;6.314;2023-05-10T11:24:29;16.30;99.90
57829;DHT22;43657;52.698;6.314;2023-05-10T11:26:55;16.30;99.90
57829;DHT22;43657;52.698;6.314;2023-05-10T11:29:24;16.20;99.90
57829;DHT22;43657;52.698;6.314;2023-05-10T11:31:52;16.00;99.90
57829;DHT22;43657;52.698;6.314;2023-05-10T11:34:32;16.00;99.90
57829;DHT22;43657;52.698;6.314;2023-05-10T11:37:01;15.80;99.90
57829;DHT22;43657;52.698;6.314;2023-05-10T11:39:28;15.70;99.90
57829;DHT22;43657;52.698;6.314;2023-05-10T11:41:55;15.60;99.90
57829;DHT22;43657;52.698;6.314;2023-05-10T11:44:32;15.60;99.90
57829;DHT22;43657;52.698;6.314;2023-05-10T11:47:03;15.50;99.90
57829;DHT22;43657;52.698;6.314;2023-05-10T11:49:29;15.60;99.90
57829;DHT22;43657;52.698;6.314;2023-05-10T11:52:06;15.60;99.90
57829;DHT22;43657;52.698;6.314;2023-05-10T11:54:35;15.60;99.90
57829;DHT22;43657;52.698;6.314;2023-05-10T11:57:07;15.60;99.90
57829;DHT22;43657;52.698;6.314;2023-05-10T11:59:36;15.70;99.90
57829;DHT22;43657;52.698;6.314;2023-05-10T12:02:04;15.80;99.90
57829;DHT22;43657;52.698;6.314;2023-05-10T12:04:30;15.80;99.90
57829;DHT22;43657;52.698;6.314;2023-05-10T12:06:58;15.90;99.90
57829;DHT22;43657;52.698;6.314;2023-05-10T12:09:30;16.00;99.90
57829;DHT22;43657;52.698;6.314;2023-05-10T12:12:07;16.00;99.90
57829;DHT22;43657;52.698;6.314;2023-05-10T12:14:38;16.10;99.90
57829;DHT22;43657;52.698;6.314;2023-05-10T12:17:04;16.20;99.90
57829;DHT22;43657;52.698;6.314;2023-05-10T12:19:38;16.40;99.90
57829;DHT22;43657;52.698;6.314;2023-05-10T12:22:16;16.50;99.90
57829;DHT22;43657;52.698;6.314;2023-05-10T12:24:56;16.70;99.90
57829;DHT22;43657;52.698;6.314;2023-05-10T12:27:31;16.90;99.90
57829;DHT22;43657;52.698;6.314;2023-05-10T12:29:58;17.10;99.90
57829;DHT22;43657;52.698;6.314;2023-05-10T12:32:40;17.10;99.90
57829;DHT22;43657;52.698;6.314;2023-05-10T12:35:14;17.10;99.90
57829;DHT22;43657;52.698;6.314;2023-05-10T12:37:47;17.10;99.90
57829;DHT22;43657;52.698;6.314;2023-05-10T12:40:19;17.00;99.90
57829;DHT22;43657;52.698;6.314;2023-05-10T12:42:48;17.00;99.90
57829;DHT22;43657;52.698;6.314;2023-05-10T12:45:14;16.90;99.90
57829;DHT22;43657;52.698;6.314;2023-05-10T12:47:43;16.70;99.90
57829;DHT22;43657;52.698;6.314;2023-05-10T12:50:09;16.50;99.90
57829;DHT22;43657;52.698;6.314;2023-05-10T12:52:35;16.30;99.90
57829;DHT22;43657;52.698;6.314;2023-05-10T12:55:03;16.10;99.90
57829;DHT22;43657;52.698;6.314;2023-05-10T12:57:34;16.00;99.90
57829;DHT22;43657;52.698;6.314;2023-05-10T13:00:06;15.90;99.90
57829;DHT22;43657;52.698;6.314;2023-05-10T13:02:32;15.70;99.90
57829;DHT22;43657;52.698;6.314;2023-05-10T13:05:01;15.70;99.90
57829;DHT22;43657;52.698;6.314;2023-05-10T13:07:29;15.70;99.90
57829;DHT22;43657;52.698;6.314;2023-05-10T13:09:55;15.60;99.90
57829;DHT22;43657;52.698;6.314;2023-05-10T13:12:21;15.50;99.90
57829;DHT22;43657;52.698;6.314;2023-05-10T13:14:46;15.50;99.90
57829;DHT22;43657;52.698;6.314;2023-05-10T13:17:12;15.60;99.90
57829;DHT22;43657;52.698;6.314;2023-05-10T13:19:38;15.50;99.90
57829;DHT22;43657;52.698;6.314;2023-05-10T13:22:04;15.60;99.90
57829;DHT22;43657;52.698;6.314;2023-05-10T13:24:34;15.70;99.90
57829;DHT22;43657;52.698;6.314;2023-05-10T13:27:06;15.60;99.90
57829;DHT22;43657;52.698;6.314;2023-05-10T13:29:35;15.60;99.90
57829;DHT22;43657;52.698;6.314;2023-05-10T13:32:03;15.50;99.90
57829;DHT22;43657;52.698;6.314;2023-05-10T13:34:34;15.30;99.90
57829;DHT22;43657;52.698;6.314;2023-05-10T13:37:03;15.20;99.90
57829;DHT22;43657;52.698;6.314;2023-05-10T13:39:40;15.10;99.90
57829;DHT22;43657;52.698;6.314;2023-05-10T13:42:17;15.00;99.90
57829;DHT22;43657;52.698;6.314;2023-05-10T13:44:46;14.90;99.90
57829;DHT22;43657;52.698;6.314;2023-05-10T13:47:11;14.80;99.90
57829;DHT22;43657;52.698;6.314;2023-05-10T13:49:40;14.70;99.90
57829;DHT22;43657;52.698;6.314;2023-05-10T13:52:10;14.70;99.90
57829;DHT22;43657;52.698;6.314;2023-05-10T13:54:37;14.60;99.90
57829;DHT22;43657;52.698;6.314;2023-05-10T13:57:08;14.60;99.90
57829;DHT22;43657;52.698;6.314;2023-05-10T13:59:41;14.60;99.90
57829;DHT22;43657;52.698;6.314;2023-05-10T14:02:07;14.60;99.90
57829;DHT22;43657;52.698;6.314;2023-05-10T14:04:35;14.70;99.90
57829;DHT22;43657;52.698;6.314;2023-05-10T14:07:01;14.70;99.90
57829;DHT22;43657;52.698;6.314;2023-05-10T14:09:32;14.70;99.90
57829;DHT22;43657;52.698;6.314;2023-05-10T14:11:58;14.80;99.90
57829;DHT22;43657;52.698;6.314;2023-05-10T14:14:24;14.80;99.90
57829;DHT22;43657;52.698;6.314;2023-05-10T14:16:52;14.90;99.90
57829;DHT22;43657;52.698;6.314;2023-05-10T14:19:23;15.00;99.90
57829;DHT22;43657;52.698;6.314;2023-05-10T14:21:52;15.10;99.90
57829;DHT22;43657;52.698;6.314;2023-05-10T14:24:18;15.20;99.90
57829;DHT22;43657;52.698;6.314;2023-05-10T14:26:46;15.30;99.90
57829;DHT22;43657;52.698;6.314;2023-05-10T14:29:12;15.40;99.90
57829;DHT22;43657;52.698;6.314;2023-05-10T14:31:43;15.50;99.90
57829;DHT22;43657;52.698;6.314;2023-05-10T14:34:09;15.50;99.90
57829;DHT22;43657;52.698;6.314;2023-05-10T14:36:35;15.70;99.90
57829;DHT22;43657;52.698;6.314;2023-05-10T14:39:02;15.80;99.90
57829;DHT22;43657;52.698;6.314;2023-05-10T14:41:28;15.90;99.90
57829;DHT22;43657;52.698;6.314;2023-05-10T14:44:00;16.00;99.90
57829;DHT22;43657;52.698;6.314;2023-05-10T14:46:31;16.20;99.90
57829;DHT22;43657;52.698;6.314;2023-05-10T14:48:57;16.30;99.90
57829;DHT22;43657;52.698;6.314;2023-05-10T14:51:32;16.40;99.90
57829;DHT22;43657;52.698;6.314;2023-05-10T14:54:00;16.40;99.90
57829;DHT22;43657;52.698;6.314;2023-05-10T14:56:26;16.50;99.90
57829;DHT22;43657;52.698;6.314;2023-05-10T14:58:55;16.40;99.90
57829;DHT22;43657;52.698;6.314;2023-05-10T15:01:23;16.40;99.90
57829;DHT22;43657;52.698;6.314;2023-05-10T15:04:00;16.30;99.90
57829;DHT22;43657;52.698;6.314;2023-05-10T15:06:37;16.20;99.90
57829;DHT22;43657;52.698;6.314;2023-05-10T15:09:09;16.10;99.90
57829;DHT22;43657;52.698;6.314;2023-05-10T15:11:53;16.10;99.90
57829;DHT22;43657;52.698;6.314;2023-05-10T15:14:19;16.10;99.90
57829;DHT22;43657;52.698;6.314;2023-05-10T15:16:44;16.10;99.90
57829;DHT22;43657;52.698;6.314;2023-05-10T15:19:10;16.10;99.90
57829;DHT22;43657;52.698;6.314;2023-05-10T15:21:36;16.10;99.90
57829;DHT22;43657;52.698;6.314;2023-05-10T15:24:07;16.20;99.90
57829;DHT22;43657;52.698;6.314;2023-05-10T15:26:39;16.30;99.90
57829;DHT22;43657;52.698;6.314;2023-05-10T15:29:14;16.30;99.90
57829;DHT22;43657;52.698;6.314;2023-05-10T15:31:49;16.40;99.90
57829;DHT22;43657;52.698;6.314;2023-05-10T15:34:28;16.50;99.90
57829;DHT22;43657;52.698;6.314;2023-05-10T15:36:57;16.60;99.90
57829;DHT22;43657;52.698;6.314;2023-05-10T15:39:34;16.60;99.90
57829;DHT22;43657;52.698;6.314;2023-05-10T15:42:00;16.70;99.90
57829;DHT22;43657;52.698;6.314;2023-05-10T15:44:26;16.60;99.90
57829;DHT22;43657;52.698;6.314;2023-05-10T15:46:52;16.70;99.90
57829;DHT22;43657;52.698;6.314;2023-05-10T15:49:23;16.60;99.90